Terminal Aerodrome Forecast
Issued by NWS

Home | Current Version | Previous Version | Text Only | Print | Product List | Glossary On
Versions: 1 2 3 4 5 6 7 8 9 10 11 12 13 14
722
FTUS46 KPDT 281737
TAFBDN
TAF
KBDN 281737Z 2818/0118 30008KT P6SM BKN045
     FM282000 29011G19KT P6SM VCSH BKN050
     FM010200 23007KT P6SM BKN070
     FM010600 21009KT P6SM SCT050 BKN250=

USA.gov is the U.S. government's official web portal to all federal, state and local government web resources and services.